Youghal, Ireland
Current Conditions -  °F | °C
As of 9:30 AM on Tuesday 21 Oct 2014 (Local Time) from EICK Reporting Station
Few Clouds Few Clouds  
Wind Chill: 41°   Ceiling: Unl
Heat Index: 48°   Visibility: 6mi
Dew Point: 43°   Wind: 22mph
Humidity: 82%   Direction: 290°WNW
Pressure: 29.91"   Gusts: NA
Location:  51.95°N, 7.85°W
Report Text: EICK 210830Z 29019KT 9999 FEW011 FEW016CB 09/06 Q1013 NOSIG
Loading
Personal Weather Stations






























Interactive Weather Map
Tropical Storm Tracking
New forecast layout! Learn more

10-Day Weather Forecast

Advertisements
Track Severe Weather on mobile